createdAt,value
2023-03-29T00:00:01.528Z,7.00
2023-03-29T00:02:31.007Z,7.00
2023-03-29T00:05:03.874Z,6.90
2023-03-29T00:07:33.465Z,7.00
2023-03-29T00:10:02.838Z,7.00
2023-03-29T00:12:29.752Z,7.00
2023-03-29T00:15:01.039Z,7.00
2023-03-29T00:17:28.415Z,7.00
2023-03-29T00:19:55.387Z,6.90
2023-03-29T00:22:22.206Z,7.00
2023-03-29T00:24:49.203Z,7.00
2023-03-29T00:27:16.765Z,7.00
2023-03-29T00:29:43.748Z,7.00
2023-03-29T00:32:10.564Z,7.00
2023-03-29T00:34:37.281Z,7.00
2023-03-29T00:37:08.884Z,7.00
2023-03-29T00:39:37.169Z,6.90
2023-03-29T00:42:04.211Z,6.90
2023-03-29T00:45:07.336Z,6.90
2023-03-29T00:47:51.770Z,7.00
2023-03-29T00:50:36.232Z,7.00
2023-03-29T00:53:21.364Z,6.90
2023-03-29T00:56:03.836Z,6.90
2023-03-29T00:58:49.482Z,6.90
2023-03-29T01:01:28.253Z,6.90
2023-03-29T01:04:09.783Z,6.90
2023-03-29T01:06:44.166Z,6.90
2023-03-29T01:09:16.284Z,7.00
2023-03-29T01:11:57.136Z,7.00
2023-03-29T01:14:37.658Z,7.00
2023-03-29T01:17:04.856Z,7.00
2023-03-29T01:19:45.038Z,7.00
2023-03-29T01:22:40.712Z,7.00
2023-03-29T01:25:29.715Z,7.00
2023-03-29T01:28:21.389Z,7.00
2023-03-29T01:31:18.379Z,7.00
2023-03-29T01:33:56.042Z,7.00
2023-03-29T01:36:58.698Z,7.00
2023-03-29T01:39:26.023Z,7.00
2023-03-29T01:42:07.772Z,7.10
2023-03-29T01:44:51.978Z,7.10
2023-03-29T01:48:07.994Z,7.10
2023-03-29T01:51:55.090Z,7.10
2023-03-29T01:54:35.309Z,7.10
2023-03-29T01:57:08.260Z,7.10
2023-03-29T01:59:40.430Z,7.00
2023-03-29T02:02:14.589Z,7.10
2023-03-29T02:04:55.632Z,7.10
2023-03-29T02:07:32.252Z,7.10
2023-03-29T02:10:00.502Z,7.10
2023-03-29T02:12:27.298Z,7.10
2023-03-29T02:14:54.720Z,7.10
2023-03-29T02:17:24.939Z,7.20
2023-03-29T02:20:33.779Z,7.20
2023-03-29T02:23:24.843Z,7.20
2023-03-29T02:25:53.844Z,7.20
2023-03-29T02:28:25.409Z,7.20
2023-03-29T02:31:09.561Z,7.20
2023-03-29T02:34:11.270Z,7.40
2023-03-29T02:36:47.336Z,7.40
2023-03-29T02:39:18.009Z,7.30
2023-03-29T02:41:49.567Z,7.40
2023-03-29T02:44:22.391Z,7.40
2023-03-29T02:46:58.104Z,7.40
2023-03-29T02:49:25.244Z,7.40
2023-03-29T02:51:57.113Z,7.40
2023-03-29T02:54:30.251Z,7.40
2023-03-29T02:57:02.533Z,7.40
2023-03-29T02:59:30.426Z,7.40
2023-03-29T03:01:58.188Z,7.50
2023-03-29T03:04:25.942Z,7.40
2023-03-29T03:06:52.800Z,7.50
2023-03-29T03:09:19.947Z,7.50
2023-03-29T03:11:46.744Z,7.50
2023-03-29T03:14:13.492Z,7.50
2023-03-29T03:16:40.288Z,7.50
2023-03-29T03:19:07.080Z,7.50
2023-03-29T03:21:35.163Z,7.50
2023-03-29T03:24:02.035Z,7.50
2023-03-29T03:26:31.486Z,7.50
2023-03-29T03:28:58.258Z,7.50
2023-03-29T03:31:25.291Z,7.50
2023-03-29T03:33:52.809Z,7.50
2023-03-29T03:36:19.493Z,7.50
2023-03-29T03:38:46.241Z,7.50
2023-03-29T03:41:13.100Z,7.50
2023-03-29T03:43:42.713Z,7.50
2023-03-29T03:46:09.720Z,7.50
2023-03-29T03:48:37.571Z,7.50
2023-03-29T03:51:06.002Z,7.40
2023-03-29T03:53:34.022Z,7.50
2023-03-29T03:56:02.197Z,7.50
2023-03-29T03:58:28.898Z,7.50
2023-03-29T04:00:55.662Z,7.50
2023-03-29T04:03:22.716Z,7.50
2023-03-29T04:05:49.914Z,7.50
2023-03-29T04:08:18.028Z,7.50
2023-03-29T04:10:54.483Z,7.50
2023-03-29T04:13:22.957Z,7.50
2023-03-29T04:15:54.037Z,7.50
2023-03-29T04:18:21.548Z,7.50
2023-03-29T04:20:49.258Z,7.50
2023-03-29T04:23:16.402Z,7.60
2023-03-29T04:25:43.477Z,7.60
2023-03-29T04:28:21.739Z,7.60
2023-03-29T04:30:49.004Z,7.50
2023-03-29T04:33:15.920Z,7.60
2023-03-29T04:35:43.090Z,7.50
2023-03-29T04:38:13.790Z,7.60
2023-03-29T04:40:40.576Z,7.60
2023-03-29T04:43:07.299Z,7.60
2023-03-29T04:45:34.483Z,7.60
2023-03-29T04:48:02.306Z,7.60
2023-03-29T04:50:29.201Z,7.60
2023-03-29T04:52:55.963Z,7.60
2023-03-29T04:55:22.833Z,7.60
2023-03-29T04:57:49.595Z,7.60
2023-03-29T05:00:17.080Z,7.60
2023-03-29T05:02:45.061Z,7.60
2023-03-29T05:05:13.837Z,7.60
2023-03-29T05:07:41.255Z,7.60
2023-03-29T05:10:09.243Z,7.60
2023-03-29T05:12:36.718Z,7.60
2023-03-29T05:15:08.012Z,7.60
2023-03-29T05:17:35.119Z,7.70
2023-03-29T05:20:07.072Z,7.60
2023-03-29T05:22:33.858Z,7.60
2023-03-29T05:25:08.474Z,7.60
2023-03-29T05:27:35.651Z,7.70
2023-03-29T05:30:02.878Z,7.60
2023-03-29T05:32:30.321Z,7.60
2023-03-29T05:34:57.593Z,7.70
2023-03-29T05:37:24.360Z,7.70
2023-03-29T05:39:51.089Z,7.70
2023-03-29T05:42:24.462Z,7.60
2023-03-29T05:44:52.811Z,7.70
2023-03-29T05:47:21.222Z,7.70
2023-03-29T05:49:47.966Z,7.70
2023-03-29T05:52:14.975Z,7.70
2023-03-29T05:54:42.164Z,7.70
2023-03-29T05:57:08.920Z,7.70
2023-03-29T05:59:35.746Z,7.80
2023-03-29T06:02:05.073Z,7.70
2023-03-29T06:04:33.600Z,7.80
2023-03-29T06:07:02.054Z,7.80
2023-03-29T06:09:28.794Z,7.70
2023-03-29T06:11:56.370Z,7.80
2023-03-29T06:14:24.816Z,7.80
2023-03-29T06:16:51.798Z,7.80
2023-03-29T06:19:19.314Z,7.90
2023-03-29T06:21:47.341Z,7.90
2023-03-29T06:24:14.219Z,7.90
2023-03-29T06:26:41.934Z,7.90
2023-03-29T06:29:09.181Z,7.90
2023-03-29T06:31:36.369Z,8.00
2023-03-29T06:34:04.756Z,8.00
2023-03-29T06:36:34.278Z,8.00
2023-03-29T06:39:00.993Z,8.10
2023-03-29T06:41:27.792Z,8.10
2023-03-29T06:43:55.076Z,8.20
2023-03-29T06:46:22.619Z,8.20
2023-03-29T06:49:01.328Z,8.30
2023-03-29T06:51:28.159Z,8.40
2023-03-29T06:53:55.099Z,8.40
2023-03-29T06:56:22.282Z,8.50
2023-03-29T06:58:49.021Z,8.50
2023-03-29T07:01:15.990Z,8.50
2023-03-29T07:03:46.741Z,8.50
2023-03-29T07:06:14.962Z,8.60
2023-03-29T07:08:45.046Z,8.60
2023-03-29T07:11:14.462Z,8.60
2023-03-29T07:13:42.923Z,8.70
2023-03-29T07:16:13.659Z,8.70
2023-03-29T07:18:43.957Z,8.70
2023-03-29T07:21:13.231Z,8.70
2023-03-29T07:23:40.967Z,8.80
2023-03-29T07:26:08.097Z,8.90
2023-03-29T07:28:37.367Z,8.90
2023-03-29T07:31:10.953Z,8.90
2023-03-29T07:33:39.277Z,9.00
2023-03-29T07:36:07.354Z,9.00
2023-03-29T07:38:34.208Z,9.10
2023-03-29T07:41:06.666Z,9.10
2023-03-29T07:43:34.381Z,9.20
2023-03-29T07:46:04.831Z,9.20
2023-03-29T07:48:33.619Z,9.30
2023-03-29T07:51:00.811Z,9.30
2023-03-29T07:53:29.588Z,9.30
2023-03-29T07:55:56.942Z,9.30
2023-03-29T07:58:23.695Z,9.40
2023-03-29T08:00:50.604Z,9.50
2023-03-29T08:03:17.660Z,9.40
2023-03-29T08:05:44.996Z,9.50
2023-03-29T08:08:14.005Z,9.50
2023-03-29T08:10:42.595Z,9.60
2023-03-29T08:13:11.699Z,9.60
2023-03-29T08:15:40.005Z,9.60
2023-03-29T08:18:08.579Z,9.60
2023-03-29T08:20:35.395Z,9.70
2023-03-29T08:23:02.553Z,9.70
2023-03-29T08:25:29.696Z,9.80
2023-03-29T08:27:56.558Z,9.80
2023-03-29T08:30:23.461Z,9.90
2023-03-29T08:32:52.996Z,9.90
2023-03-29T08:35:22.257Z,10.00
2023-03-29T08:37:49.033Z,10.00
2023-03-29T08:40:23.237Z,10.00
2023-03-29T08:42:58.988Z,10.00
2023-03-29T08:46:02.066Z,10.00
2023-03-29T08:49:03.664Z,10.00
2023-03-29T08:51:39.342Z,10.20
2023-03-29T08:54:20.488Z,10.20
2023-03-29T08:56:51.304Z,10.30
2023-03-29T08:59:25.226Z,10.30
2023-03-29T09:01:57.776Z,10.30
2023-03-29T09:04:34.834Z,10.40
2023-03-29T09:07:09.311Z,10.40
2023-03-29T09:09:36.335Z,10.50
2023-03-29T09:12:24.806Z,10.60
2023-03-29T09:15:09.848Z,10.60
2023-03-29T09:18:02.190Z,10.70
2023-03-29T09:21:22.747Z,10.70
2023-03-29T09:24:20.784Z,10.80
2023-03-29T09:27:14.319Z,10.70
2023-03-29T09:29:55.135Z,10.70
2023-03-29T09:32:50.403Z,10.90
2023-03-29T09:35:27.630Z,10.90
2023-03-29T09:37:55.391Z,10.70
2023-03-29T09:40:39.729Z,10.80
2023-03-29T09:43:13.762Z,10.80
2023-03-29T09:45:42.779Z,10.80
2023-03-29T09:48:19.339Z,11.00
2023-03-29T09:50:52.819Z,11.00
2023-03-29T09:53:21.856Z,11.10
2023-03-29T09:55:50.894Z,11.10
2023-03-29T09:58:28.382Z,11.30
2023-03-29T10:01:00.711Z,11.20
2023-03-29T10:03:31.774Z,11.30
2023-03-29T10:06:02.690Z,11.40
2023-03-29T10:08:58.963Z,11.50
2023-03-29T10:11:33.497Z,11.50
2023-03-29T10:14:14.005Z,11.60
2023-03-29T10:16:46.055Z,11.60
2023-03-29T10:19:21.244Z,11.70
2023-03-29T10:21:53.884Z,11.80
2023-03-29T10:24:23.169Z,11.80
2023-03-29T10:26:55.825Z,11.80
2023-03-29T10:29:25.946Z,11.80
2023-03-29T10:31:53.746Z,11.70
2023-03-29T10:34:26.948Z,11.70
2023-03-29T10:37:02.025Z,11.70
2023-03-29T10:39:35.412Z,11.80
2023-03-29T10:42:04.209Z,11.80
2023-03-29T10:44:37.538Z,11.80
2023-03-29T10:47:23.315Z,11.70
2023-03-29T10:49:58.694Z,11.60
2023-03-29T10:52:25.979Z,11.60
2023-03-29T10:54:56.286Z,11.70
2023-03-29T10:57:57.330Z,11.70
2023-03-29T11:00:51.814Z,11.70
2023-03-29T11:03:41.188Z,11.70
2023-03-29T11:06:42.743Z,11.70
2023-03-29T11:09:45.728Z,11.80
2023-03-29T11:12:24.257Z,11.70
2023-03-29T11:15:20.263Z,11.70
2023-03-29T11:18:28.557Z,11.70
2023-03-29T11:21:23.611Z,11.70
2023-03-29T11:23:59.203Z,11.60
2023-03-29T11:26:57.338Z,11.70
2023-03-29T11:29:48.884Z,11.70
2023-03-29T11:32:53.144Z,11.70
2023-03-29T11:36:25.602Z,11.80
2023-03-29T11:39:11.836Z,11.80
2023-03-29T11:42:09.704Z,11.90
2023-03-29T11:44:40.798Z,11.90
2023-03-29T11:47:23.068Z,11.90
2023-03-29T11:50:15.623Z,11.80
2023-03-29T11:53:29.200Z,11.90
2023-03-29T11:56:24.519Z,11.90
2023-03-29T11:59:01.695Z,12.00
2023-03-29T12:01:56.414Z,12.00
2023-03-29T12:04:36.547Z,12.00
2023-03-29T12:07:50.919Z,12.00
2023-03-29T12:10:26.707Z,12.00
2023-03-29T12:13:06.088Z,12.10
2023-03-29T12:15:45.501Z,12.10
2023-03-29T12:18:49.516Z,12.10
2023-03-29T12:21:21.622Z,12.00
2023-03-29T12:23:49.547Z,12.20
2023-03-29T12:26:32.823Z,12.00
2023-03-29T12:29:20.553Z,11.90
2023-03-29T12:31:57.335Z,11.90
2023-03-29T12:34:57.497Z,11.90
2023-03-29T12:37:27.361Z,11.90
2023-03-29T12:39:54.344Z,11.90
2023-03-29T12:42:23.948Z,11.80
2023-03-29T12:44:59.011Z,11.90
2023-03-29T12:47:40.548Z,11.90
2023-03-29T12:50:23.234Z,11.90
2023-03-29T12:52:50.323Z,11.90
2023-03-29T12:55:48.924Z,12.00
2023-03-29T12:58:39.209Z,12.00
2023-03-29T13:01:24.233Z,12.10
2023-03-29T13:04:01.240Z,12.10
2023-03-29T13:07:02.723Z,12.20
2023-03-29T13:09:57.567Z,12.20
2023-03-29T13:12:35.249Z,12.10
2023-03-29T13:15:25.140Z,12.10
2023-03-29T13:18:12.178Z,12.20
2023-03-29T13:21:16.201Z,12.20
2023-03-29T13:24:03.270Z,12.30
2023-03-29T13:27:13.888Z,12.50
2023-03-29T13:30:12.915Z,12.50
2023-03-29T13:33:05.808Z,12.60
2023-03-29T13:35:59.920Z,12.70
2023-03-29T13:38:31.794Z,12.70
2023-03-29T13:41:07.755Z,12.70
2023-03-29T13:43:55.228Z,12.70
2023-03-29T13:46:43.200Z,12.80
2023-03-29T13:49:27.741Z,12.80
2023-03-29T13:51:54.471Z,12.90
2023-03-29T13:54:36.569Z,13.00
2023-03-29T13:57:30.017Z,13.00
2023-03-29T14:00:18.102Z,13.10
2023-03-29T14:02:54.927Z,13.20
2023-03-29T14:05:37.305Z,13.20
2023-03-29T14:08:30.933Z,13.30
2023-03-29T14:11:04.483Z,13.30
2023-03-29T14:13:31.456Z,13.30
2023-03-29T14:16:10.603Z,13.40
2023-03-29T14:18:41.172Z,13.40
2023-03-29T14:21:13.001Z,13.40
2023-03-29T14:23:53.548Z,13.50
2023-03-29T14:26:24.289Z,13.60
2023-03-29T14:28:58.384Z,13.60
2023-03-29T14:31:32.717Z,13.70
2023-03-29T14:34:05.568Z,13.70
2023-03-29T14:36:33.988Z,13.70
2023-03-29T14:39:23.312Z,13.70
2023-03-29T14:41:53.965Z,13.80
2023-03-29T14:44:24.805Z,13.80
2023-03-29T14:46:52.269Z,13.90
2023-03-29T14:49:23.475Z,14.00
2023-03-29T14:51:52.876Z,14.00
2023-03-29T14:54:32.135Z,14.10
2023-03-29T14:56:59.963Z,14.20
2023-03-29T14:59:40.886Z,14.10
2023-03-29T15:02:31.014Z,14.10
2023-03-29T15:05:05.137Z,14.20
2023-03-29T15:07:36.446Z,14.30
2023-03-29T15:10:06.482Z,14.30
2023-03-29T15:12:35.992Z,14.30
2023-03-29T15:15:04.196Z,14.40
2023-03-29T15:17:50.997Z,14.40
2023-03-29T15:20:28.445Z,14.40
2023-03-29T15:23:08.393Z,14.30
2023-03-29T15:25:48.439Z,14.40
2023-03-29T15:28:27.582Z,14.40
2023-03-29T15:31:08.131Z,14.40
2023-03-29T15:33:38.831Z,14.40
2023-03-29T15:36:08.500Z,14.40
2023-03-29T15:38:44.199Z,14.40
2023-03-29T15:41:14.220Z,14.30
2023-03-29T15:43:41.949Z,14.30
2023-03-29T15:46:13.894Z,14.30
2023-03-29T15:48:41.570Z,14.40
2023-03-29T15:51:12.442Z,14.40
2023-03-29T15:53:39.660Z,14.40
2023-03-29T15:56:11.550Z,14.30
2023-03-29T15:58:39.066Z,14.30
2023-03-29T16:01:36.641Z,14.30
2023-03-29T16:04:23.818Z,14.40
2023-03-29T16:06:54.979Z,14.40
2023-03-29T16:09:25.084Z,14.30
2023-03-29T16:11:51.871Z,14.30
2023-03-29T16:14:27.036Z,14.30
2023-03-29T16:16:59.351Z,14.30
2023-03-29T16:19:28.770Z,14.30
2023-03-29T16:21:55.924Z,14.30
2023-03-29T16:24:26.697Z,14.30
2023-03-29T16:26:56.452Z,14.30
2023-03-29T16:29:25.293Z,14.30
2023-03-29T16:31:53.080Z,14.30
2023-03-29T16:34:22.620Z,14.30
2023-03-29T16:36:50.670Z,14.30
2023-03-29T16:39:18.115Z,14.30
2023-03-29T16:41:48.201Z,14.20
2023-03-29T16:44:23.757Z,14.20
2023-03-29T16:46:54.475Z,14.10
2023-03-29T16:49:21.524Z,14.20
2023-03-29T16:51:48.431Z,14.10
2023-03-29T16:54:17.654Z,14.10
2023-03-29T16:56:44.800Z,14.10
2023-03-29T16:59:12.204Z,14.10
2023-03-29T17:01:40.627Z,14.10
2023-03-29T17:04:08.172Z,14.10
2023-03-29T17:06:38.182Z,14.10
2023-03-29T17:09:06.080Z,14.00
2023-03-29T17:11:33.573Z,14.10
2023-03-29T17:14:03.057Z,14.10
2023-03-29T17:16:29.821Z,14.20
2023-03-29T17:19:00.369Z,14.10
2023-03-29T17:21:28.800Z,14.10
2023-03-29T17:23:55.570Z,14.10
2023-03-29T17:26:22.410Z,14.10
2023-03-29T17:28:49.387Z,14.00
2023-03-29T17:31:16.944Z,14.10
2023-03-29T17:33:43.755Z,14.10
2023-03-29T17:36:11.866Z,14.10
2023-03-29T17:38:38.670Z,14.10
2023-03-29T17:41:07.904Z,14.10
2023-03-29T17:43:34.704Z,14.10
2023-03-29T17:46:01.665Z,14.10
2023-03-29T17:48:28.749Z,14.10
2023-03-29T17:50:56.958Z,14.10
2023-03-29T17:53:25.876Z,14.10
2023-03-29T17:55:52.882Z,14.10
2023-03-29T17:58:19.730Z,14.00
2023-03-29T18:00:46.576Z,14.10
2023-03-29T18:03:13.576Z,14.10
2023-03-29T18:05:40.684Z,14.00
2023-03-29T18:08:08.698Z,14.00
2023-03-29T18:10:36.811Z,14.00
2023-03-29T18:13:03.761Z,14.00
2023-03-29T18:15:30.493Z,14.00
2023-03-29T18:17:57.736Z,13.90
2023-03-29T18:20:24.494Z,13.90
2023-03-29T18:22:51.321Z,13.90
2023-03-29T18:25:18.289Z,13.80
2023-03-29T18:27:45.277Z,13.80
2023-03-29T18:30:16.898Z,13.70
2023-03-29T18:32:43.864Z,13.70
2023-03-29T18:35:12.150Z,13.70
2023-03-29T18:37:38.975Z,13.60
2023-03-29T18:40:08.588Z,13.70
2023-03-29T18:42:35.615Z,13.60
2023-03-29T18:45:03.232Z,13.60
2023-03-29T18:47:30.246Z,13.60
2023-03-29T18:49:57.693Z,13.60
2023-03-29T18:52:24.504Z,13.60
2023-03-29T18:54:51.419Z,13.50
2023-03-29T18:57:18.563Z,13.50
2023-03-29T18:59:47.372Z,13.60
2023-03-29T19:02:14.140Z,13.50
2023-03-29T19:04:41.048Z,13.50
2023-03-29T19:07:08.824Z,13.50
2023-03-29T19:09:36.017Z,13.50
2023-03-29T19:12:03.309Z,13.50
2023-03-29T19:14:33.112Z,13.50
2023-03-29T19:16:59.835Z,13.50
2023-03-29T19:19:27.157Z,13.50
2023-03-29T19:21:54.841Z,13.50
2023-03-29T19:24:21.952Z,13.50
2023-03-29T19:26:49.993Z,13.40
2023-03-29T19:29:18.862Z,13.40
2023-03-29T19:31:45.651Z,13.30
2023-03-29T19:34:12.482Z,13.40
2023-03-29T19:36:39.768Z,13.40
2023-03-29T19:39:07.159Z,13.40
2023-03-29T19:41:33.883Z,13.40
2023-03-29T19:44:00.683Z,13.40
2023-03-29T19:46:28.854Z,13.30
2023-03-29T19:48:56.234Z,13.30
2023-03-29T19:51:23.622Z,13.30
2023-03-29T19:53:52.671Z,13.30
2023-03-29T19:56:20.116Z,13.30
2023-03-29T19:58:48.095Z,13.30
2023-03-29T20:01:15.626Z,13.30
2023-03-29T20:03:43.831Z,13.30
2023-03-29T20:06:10.907Z,13.30
2023-03-29T20:08:38.683Z,13.20
2023-03-29T20:11:10.305Z,13.30
2023-03-29T20:13:45.290Z,13.20
2023-03-29T20:16:16.143Z,13.30
2023-03-29T20:18:47.235Z,13.20
2023-03-29T20:21:16.562Z,13.30
2023-03-29T20:23:44.083Z,13.20
2023-03-29T20:26:11.112Z,13.20
2023-03-29T20:28:37.910Z,13.20
2023-03-29T20:31:10.390Z,13.20
2023-03-29T20:33:37.873Z,13.30
2023-03-29T20:36:06.610Z,13.20
2023-03-29T20:38:34.906Z,13.20
2023-03-29T20:41:04.025Z,13.20
2023-03-29T20:43:37.363Z,13.20
2023-03-29T20:46:05.724Z,13.20
2023-03-29T20:48:32.465Z,13.30
2023-03-29T20:51:02.710Z,13.30
2023-03-29T20:53:34.044Z,13.30
2023-03-29T20:56:00.794Z,13.30
2023-03-29T20:58:28.988Z,13.30
2023-03-29T21:00:58.661Z,13.30
2023-03-29T21:03:25.622Z,13.20
2023-03-29T21:05:55.507Z,13.30
2023-03-29T21:08:22.291Z,13.20
2023-03-29T21:10:49.064Z,13.20
2023-03-29T21:13:15.824Z,13.20
2023-03-29T21:15:43.642Z,13.20
2023-03-29T21:18:11.071Z,13.20
2023-03-29T21:20:37.822Z,13.20
2023-03-29T21:23:04.817Z,13.20
2023-03-29T21:25:31.529Z,13.20
2023-03-29T21:27:58.217Z,13.20
2023-03-29T21:30:24.961Z,13.20
2023-03-29T21:32:51.741Z,13.20
2023-03-29T21:35:18.703Z,13.20
2023-03-29T21:37:45.594Z,13.20
2023-03-29T21:40:13.172Z,13.20
2023-03-29T21:42:39.967Z,13.10
2023-03-29T21:45:07.774Z,13.10
2023-03-29T21:47:34.499Z,13.10
2023-03-29T21:50:01.212Z,13.10
2023-03-29T21:52:27.954Z,13.10
2023-03-29T21:54:54.743Z,13.10
2023-03-29T21:57:21.512Z,13.00
2023-03-29T21:59:48.319Z,13.00
2023-03-29T22:02:16.900Z,13.10
2023-03-29T22:04:43.740Z,13.00
2023-03-29T22:07:10.648Z,13.10
2023-03-29T22:09:37.583Z,13.10
2023-03-29T22:12:04.643Z,13.00
2023-03-29T22:14:35.099Z,13.00
2023-03-29T22:17:07.792Z,13.00
2023-03-29T22:19:39.526Z,13.10
2023-03-29T22:22:13.038Z,13.10
2023-03-29T22:24:41.313Z,13.00
2023-03-29T22:27:08.377Z,13.00
2023-03-29T22:29:35.339Z,13.00
2023-03-29T22:32:02.193Z,13.10
2023-03-29T22:34:29.942Z,13.10
2023-03-29T22:36:56.826Z,13.10
2023-03-29T22:39:23.574Z,13.00
2023-03-29T22:41:51.375Z,13.20
2023-03-29T22:44:18.106Z,13.10
2023-03-29T22:46:44.951Z,13.10
2023-03-29T22:49:13.144Z,13.10
2023-03-29T22:51:39.929Z,13.10
2023-03-29T22:54:06.793Z,13.10
2023-03-29T22:56:33.629Z,13.20
2023-03-29T22:59:01.681Z,13.10
2023-03-29T23:01:28.441Z,13.10
2023-03-29T23:03:55.269Z,13.10
2023-03-29T23:06:21.989Z,13.10
2023-03-29T23:08:48.764Z,13.10
2023-03-29T23:11:15.555Z,13.10
2023-03-29T23:13:42.266Z,13.10
2023-03-29T23:16:09.552Z,13.10
2023-03-29T23:18:37.427Z,13.20
2023-03-29T23:21:06.340Z,13.20
2023-03-29T23:23:33.602Z,13.20
2023-03-29T23:26:01.987Z,13.20
2023-03-29T23:28:30.533Z,13.20
2023-03-29T23:31:12.492Z,13.20
2023-03-29T23:33:42.791Z,13.30
2023-03-29T23:36:18.037Z,13.30
2023-03-29T23:38:46.706Z,13.30
2023-03-29T23:41:13.801Z,13.40
2023-03-29T23:43:43.900Z,13.40
2023-03-29T23:46:16.812Z,13.40
2023-03-29T23:48:49.219Z,13.40
2023-03-29T23:51:19.052Z,13.50
2023-03-29T23:53:46.501Z,13.50
2023-03-29T23:56:13.213Z,13.50
2023-03-29T23:58:40.042Z,13.60
